Gibraltar, Gibraltar
Current Conditions -  °F | °C
As of 10:50 PM on Saturday 25 Oct 2014 (Local Time) from LXGB Reporting Station
Few Clouds Few Clouds  
Wind Chill: 68°   Ceiling: Unl
Heat Index: 68°   Visibility: 6mi
Dew Point: 63°   Wind: 15mph
Humidity: 83%   Direction: 80°E
Pressure: 30.12"   Gusts: NA
Location:  36.14°N, 5.35°W
Report Text: LXGB 252050Z AUTO 08013KT 9999 // FEW020/// 20/17 Q1020
Loading
Personal Weather Stations






























Interactive Weather Map
Tropical Storm Tracking
New forecast layout! Learn more

10-Day Weather Forecast

Advertisements
Track Severe Weather on mobile